Time;durP1;ratioP1;P1;durP2;ratioP2;P2;SDS_P1;SDS_P2;PMS_P1;PMS_P2;Temp;Humidity;BMP_temperature;BMP_pressure;BME280_temperature;BME280_humidity;BME280_pressure;Samples;Min_cycle;Max_cycle;Signal;HPM_P1;HPM_P2
2023/06/07 00:00:48;;;;;;;5.97;4.22;;;;;;;10.77;91.31;96172.06;2097994;28;20079;-58
2023/06/07 00:01:49;;;;;;;5.40;4.55;;;;;;;10.75;91.13;96180.84;2098297;28;20059;-58
2023/06/07 00:02:51;;;;;;;7.70;5.38;;;;;;;10.74;91.09;96173.94;2098200;28;20408;-59
2023/06/07 00:03:52;;;;;;;7.50;5.30;;;;;;;10.71;91.83;96176.69;2097560;28;20052;-59
2023/06/07 00:04:53;;;;;;;5.88;4.90;;;;;;;10.68;90.76;96175.06;2098017;28;20051;-57
2023/06/07 00:05:55;;;;;;;5.50;4.47;;;;;;;10.67;91.34;96169.94;2098436;28;20040;-57
2023/06/07 00:07:01;;;;;;;6.65;5.15;;;;;;;10.65;91.73;96171.75;2097605;28;20044;-57
2023/06/07 00:08:02;;;;;;;6.97;5.30;;;;;;;10.63;91.28;96166.63;2097611;28;20052;-58
2023/06/07 00:09:03;;;;;;;7.70;5.47;;;;;;;10.64;91.77;96173.53;2097619;28;20056;-58
2023/06/07 00:10:06;;;;;;;7.78;5.10;;;;;;;10.63;92.65;96165.78;2098015;28;20075;-58
2023/06/07 00:11:07;;;;;;;6.55;5.85;;;;;;;10.65;91.94;96171.75;2098378;28;20041;-58
2023/06/07 00:12:08;;;;;;;6.07;5.32;;;;;;;10.60;92.66;96162.41;2097537;28;20048;-57
2023/06/07 00:13:09;;;;;;;7.15;5.15;;;;;;;10.58;92.84;96165.97;2097611;28;20491;-58
2023/06/07 00:14:10;;;;;;;5.75;5.13;;;;;;;10.60;92.74;96174.56;2097862;28;20496;-58
2023/06/07 00:15:11;;;;;;;7.65;5.53;;;;;;;10.58;92.79;96171.19;2098170;28;20048;-58
2023/06/07 00:16:13;;;;;;;6.53;5.22;;;;;;;10.57;92.61;96177.28;2097952;28;20128;-58
2023/06/07 00:17:15;;;;;;;7.40;6.22;;;;;;;10.53;93.04;96168.81;2089219;28;20075;-57
2023/06/07 00:18:19;;;;;;;8.38;6.00;;;;;;;10.53;93.05;96176.59;2089401;28;20060;-58
2023/06/07 00:19:21;;;;;;;7.90;5.68;;;;;;;10.53;92.58;96181.78;2098127;28;20040;-58
2023/06/07 00:20:22;;;;;;;6.57;5.20;;;;;;;10.48;93.31;96160.38;2097518;28;20052;-58
2023/06/07 00:21:24;;;;;;;7.82;5.45;;;;;;;10.41;93.45;96155.50;2097579;28;20044;-58
2023/06/07 00:22:25;;;;;;;5.38;4.82;;;;;;;10.48;93.39;96164.72;2097211;28;20060;-58
2023/06/07 00:23:28;;;;;;;6.28;4.88;;;;;;;10.46;93.42;96166.53;2097282;28;20048;-58
2023/06/07 00:24:29;;;;;;;6.53;5.22;;;;;;;10.47;93.06;96171.66;2097399;28;20061;-58
2023/06/07 00:25:30;;;;;;;7.20;5.13;;;;;;;10.36;93.40;96153.94;2097829;28;20068;-58
2023/06/07 00:26:31;;;;;;;7.20;5.50;;;;;;;10.45;93.45;96175.22;2097938;28;20052;-58
2023/06/07 00:27:32;;;;;;;8.05;5.22;;;;;;;10.43;93.35;96164.09;2097430;28;20055;-58
2023/06/07 00:28:34;;;;;;;9.25;5.75;;;;;;;10.41;93.48;96171.94;2098251;28;20071;-58
2023/06/07 00:29:35;;;;;;;6.97;5.80;;;;;;;10.32;93.22;96152.41;2097166;28;20052;-58
2023/06/07 00:30:36;;;;;;;7.18;5.40;;;;;;;10.37;92.70;96173.81;2097427;28;20060;-57
2023/06/07 00:31:37;;;;;;;6.75;5.47;;;;;;;10.35;93.76;96169.59;2097386;28;20052;-58
2023/06/07 00:32:38;;;;;;;7.15;5.90;;;;;;;10.36;93.73;96168.69;2098302;28;20052;-58
2023/06/07 00:33:39;;;;;;;6.72;5.65;;;;;;;10.34;93.80;96167.91;2097474;28;20075;-58
2023/06/07 00:34:41;;;;;;;6.80;5.40;;;;;;;10.32;93.62;96165.41;2097465;28;20048;-58
2023/06/07 00:35:42;;;;;;;9.63;5.93;;;;;;;10.32;93.67;96172.34;2097516;28;20159;-58
2023/06/07 00:36:43;;;;;;;6.22;5.07;;;;;;;10.30;93.06;96162.00;2089223;28;20048;-58
2023/06/07 00:37:44;;;;;;;6.47;5.07;;;;;;;10.29;93.36;96162.94;2080674;28;20508;-58
2023/06/07 00:38:45;;;;;;;8.40;5.93;;;;;;;10.29;93.11;96165.53;2080829;28;20104;-58
2023/06/07 00:39:46;;;;;;;7.03;5.57;;;;;;;10.28;93.71;96170.78;2080454;28;20053;-58
2023/06/07 00:40:47;;;;;;;7.53;5.13;;;;;;;10.26;93.34;96163.00;2088653;28;20057;-58
2023/06/07 00:41:48;;;;;;;6.28;4.85;;;;;;;10.24;93.72;96164.84;2097704;28;20060;-58
2023/06/07 00:42:50;;;;;;;6.78;5.18;;;;;;;10.23;93.43;96164.91;2097255;28;20056;-58
2023/06/07 00:43:52;;;;;;;5.38;4.88;;;;;;;10.23;93.84;96162.31;2088449;28;20167;-58
2023/06/07 00:44:53;;;;;;;6.20;5.18;;;;;;;10.21;93.92;96165.00;2089470;28;20449;-58
2023/06/07 00:45:54;;;;;;;5.97;5.38;;;;;;;10.11;93.30;96151.56;2088585;28;20053;-58
2023/06/07 00:46:55;;;;;;;7.75;5.70;;;;;;;10.14;93.58;96161.78;2088503;28;20052;-58
2023/06/07 00:47:57;;;;;;;7.28;5.57;;;;;;;10.06;93.27;96152.66;2088954;28;20052;-58
2023/06/07 00:48:58;;;;;;;7.90;5.95;;;;;;;10.13;93.98;96162.72;2080683;28;20460;-58
2023/06/07 00:49:59;;;;;;;7.15;6.10;;;;;;;10.12;93.41;96162.78;2080359;28;20057;-58
2023/06/07 00:51:00;;;;;;;7.15;6.13;;;;;;;10.12;93.88;96160.16;2097692;28;20405;-58
2023/06/07 00:52:01;;;;;;;8.80;6.28;;;;;;;10.09;93.75;96160.31;2097280;28;20063;-58
2023/06/07 00:53:04;;;;;;;6.72;5.72;;;;;;;10.09;94.39;96158.56;2080202;28;20045;-58
2023/06/07 00:54:05;;;;;;;10.38;6.40;;;;;;;10.08;93.76;96162.06;2072876;28;20054;-58
2023/06/07 00:55:06;;;;;;;6.93;5.72;;;;;;;10.07;93.89;96156.94;2088536;28;20053;-58
2023/06/07 00:56:07;;;;;;;6.65;5.78;;;;;;;10.06;94.08;96156.09;2088220;28;20063;-58
2023/06/07 00:57:09;;;;;;;8.40;5.90;;;;;;;10.05;94.35;96153.56;2080145;28;20057;-58
2023/06/07 00:58:10;;;;;;;7.57;6.13;;;;;;;10.04;94.54;96154.47;2080732;28;20053;-58
2023/06/07 00:59:12;;;;;;;6.57;5.72;;;;;;;10.06;94.57;96150.06;2080286;28;20049;-58
2023/06/07 01:00:15;;;;;;;7.60;6.07;;;;;;;10.05;94.16;96153.56;2080383;28;20058;-58
2023/06/07 01:01:18;;;;;;;7.20;5.72;;;;;;;10.03;94.51;96155.38;2081322;28;20523;-58
2023/06/07 01:02:19;;;;;;;8.85;6.10;;;;;;;10.01;94.28;96152.84;2088595;28;20053;-58
2023/06/07 01:08:32;;;;;;;12.10;6.80;;;;;;;9.87;94.73;96148.25;2463357;23;20979;-59
2023/06/07 01:09:34;;;;;;;9.73;6.50;;;;;;;9.87;94.52;96150.00;2015372;29;20053;-59
2023/06/07 01:10:36;;;;;;;8.90;6.55;;;;;;;9.84;94.67;96150.13;2010037;29;20061;-59
2023/06/07 01:11:37;;;;;;;8.88;6.22;;;;;;;9.80;94.52;96144.22;2017284;29;20053;-59
2023/06/07 01:12:38;;;;;;;8.50;6.57;;;;;;;9.82;94.36;96155.38;2017299;29;20045;-59
2023/06/07 01:13:39;;;;;;;7.43;6.00;;;;;;;9.80;94.25;96152.00;2009648;29;20097;-56
2023/06/07 01:14:40;;;;;;;9.77;6.65;;;;;;;9.80;94.54;96149.41;2008723;29;20065;-56
2023/06/07 01:15:41;;;;;;;7.47;6.68;;;;;;;9.75;94.52;96150.50;2009152;29;20060;-58
2023/06/07 01:16:43;;;;;;;7.47;6.53;;;;;;;9.77;94.61;96148.69;2009584;29;20402;-59
2023/06/07 01:17:44;;;;;;;7.82;6.38;;;;;;;9.74;95.23;96152.25;2009804;29;20053;-59
2023/06/07 01:18:45;;;;;;;8.95;7.47;;;;;;;9.66;95.11;96146.53;2009537;29;20053;-59
2023/06/07 01:19:53;;;;;;;7.38;6.57;;;;;;;9.72;95.09;96143.69;2009801;29;20508;-59
2023/06/07 01:20:55;;;;;;;7.75;6.38;;;;;;;9.72;94.91;96144.53;2010000;29;20053;-59
2023/06/07 01:22:06;;;;;;;7.50;5.97;;;;;;;9.72;94.91;96152.31;2017544;29;20457;-59
2023/06/07 01:23:07;;;;;;;13.35;6.53;;;;;;;9.71;95.58;96148.03;2024813;29;20056;-59
2023/06/07 01:24:09;;;;;;;8.13;6.50;;;;;;;9.71;95.34;96152.38;2024943;29;20059;-59
2023/06/07 01:25:10;;;;;;;7.03;5.90;;;;;;;9.71;95.19;96149.78;2017254;29;20040;-59
2023/06/07 01:26:12;;;;;;;8.38;6.82;;;;;;;9.68;95.10;96144.75;1994448;29;20046;-59
2023/06/07 01:27:14;;;;;;;9.90;6.82;;;;;;;9.66;95.56;96147.38;2001951;29;20426;-59
2023/06/07 01:28:15;;;;;;;7.25;6.53;;;;;;;9.56;95.53;96130.50;2009493;29;20049;-59
2023/06/07 01:29:16;;;;;;;9.43;6.20;;;;;;;9.63;95.51;96150.09;2001891;29;20045;-59
2023/06/07 01:30:17;;;;;;;7.32;6.15;;;;;;;9.61;95.18;96145.88;1994489;29;20062;-59
2023/06/07 01:31:18;;;;;;;7.45;6.50;;;;;;;9.57;95.46;96137.41;1994445;29;20062;-59
2023/06/07 01:32:19;;;;;;;9.00;6.13;;;;;;;9.60;95.85;96146.81;2009849;29;20409;-59
2023/06/07 01:33:20;;;;;;;7.35;6.40;;;;;;;9.60;95.79;96141.63;2002367;29;20073;-59
2023/06/07 01:34:21;;;;;;;8.02;6.85;;;;;;;9.60;95.71;96147.66;2003080;29;20068;-59
2023/06/07 01:35:22;;;;;;;7.55;6.75;;;;;;;9.59;95.50;96139.91;2018525;29;20057;-59
2023/06/07 01:36:24;;;;;;;8.13;6.68;;;;;;;9.52;95.25;96134.16;2019052;29;20435;-59
2023/06/07 01:37:25;;;;;;;7.63;6.40;;;;;;;9.52;95.84;96143.69;2011020;29;20061;-59
2023/06/07 01:38:27;;;;;;;9.85;7.03;;;;;;;9.56;95.75;96143.47;2003134;29;20142;-59
2023/06/07 01:39:28;;;;;;;9.48;7.00;;;;;;;9.53;95.80;96140.19;2003521;29;20069;-59
2023/06/07 01:40:29;;;;;;;10.05;6.82;;;;;;;9.50;95.64;96139.38;2002964;29;20505;-59
2023/06/07 01:41:31;;;;;;;10.55;7.25;;;;;;;9.50;95.77;96144.56;1995930;29;20049;-59
2023/06/07 01:42:35;;;;;;;8.30;7.40;;;;;;;9.50;95.77;96136.78;2010610;29;20076;-59
2023/06/07 01:43:36;;;;;;;8.52;7.63;;;;;;;9.48;96.20;96132.56;2018470;29;20056;-59
2023/06/07 01:44:37;;;;;;;11.27;7.65;;;;;;;9.49;95.66;96140.31;2018919;29;20061;-59
2023/06/07 01:45:39;;;;;;;8.68;7.40;;;;;;;9.38;96.01;96115.69;2026296;29;20488;-59
2023/06/07 01:46:41;;;;;;;10.70;8.35;;;;;;;9.38;95.76;96126.94;2026622;29;20477;-59
2023/06/07 01:47:42;;;;;;;11.35;8.07;;;;;;;9.44;95.78;96137.06;2018446;29;20504;-59
2023/06/07 01:48:43;;;;;;;8.45;7.55;;;;;;;9.41;95.38;96132.00;2017847;29;20060;-59
2023/06/07 01:49:44;;;;;;;8.95;7.72;;;;;;;9.41;95.61;96137.19;2026896;29;20049;-59
2023/06/07 01:50:45;;;;;;;9.32;8.23;;;;;;;9.40;96.07;96135.47;2027068;29;20377;-58
2023/06/07 01:51:47;;;;;;;9.18;8.18;;;;;;;9.41;95.98;96125.94;2026389;29;20056;-59
2023/06/07 01:52:48;;;;;;;8.27;7.28;;;;;;;9.43;95.65;96139.69;2026874;29;20070;-59
2023/06/07 01:53:50;;;;;;;9.75;8.18;;;;;;;9.41;95.98;96136.31;2018607;29;20143;-59
2023/06/07 01:54:51;;;;;;;9.85;8.35;;;;;;;9.40;96.24;96134.63;2018291;29;20371;-59
2023/06/07 01:55:58;;;;;;;10.23;8.20;;;;;;;9.39;96.07;96127.78;2025914;29;20064;-59
2023/06/07 01:57:14;;;;;;;9.75;8.05;;;;;;;9.36;95.95;96139.13;2018795;29;20036;-59
2023/06/07 01:58:19;;;;;;;10.20;8.50;;;;;;;9.34;95.75;96130.53;2013204;29;20057;-59
2023/06/07 01:59:38;;;;;;;10.20;8.65;;;;;;;9.31;96.45;96128.09;2011496;29;20057;-59
2023/06/07 02:00:59;;;;;;;12.75;9.18;;;;;;;9.33;96.76;96136.66;2012798;29;20398;-58
2023/06/07 02:02:17;;;;;;;11.30;9.23;;;;;;;9.33;96.31;96134.06;2012823;29;20057;-59
2023/06/07 02:03:28;;;;;;;10.82;8.63;;;;;;;9.21;96.30;96108.63;2013015;29;20061;-59
2023/06/07 02:04:31;;;;;;;12.27;8.63;;;;;;;9.34;96.36;96127.13;2018122;29;20053;-59
2023/06/07 02:05:35;;;;;;;11.30;8.23;;;;;;;9.27;97.09;96116.13;2011266;29;20064;-59
2023/06/07 02:06:36;;;;;;;9.52;8.52;;;;;;;9.30;96.46;96120.34;2018110;29;20057;-59
2023/06/07 02:07:43;;;;;;;9.85;8.85;;;;;;;9.38;97.19;96120.88;2017850;29;20064;-59
2023/06/07 02:08:45;;;;;;;10.45;8.45;;;;;;;9.37;96.49;96130.41;2026772;29;20079;-58
2023/06/07 02:09:46;;;;;;;10.85;9.05;;;;;;;9.26;96.97;96117.06;2026198;29;20456;-59
2023/06/07 02:10:48;;;;;;;10.75;9.00;;;;;;;9.31;97.05;96124.66;2010168;29;20441;-59
2023/06/07 02:11:49;;;;;;;11.60;9.77;;;;;;;9.31;96.77;96125.50;2011063;29;20053;-59
2023/06/07 02:12:52;;;;;;;10.88;9.77;;;;;;;9.30;96.53;96130.72;2018238;29;20052;-58
2023/06/07 02:13:53;;;;;;;10.23;8.75;;;;;;;9.28;97.33;96130.81;2010501;29;20064;-59
2023/06/07 02:14:57;;;;;;;10.70;9.35;;;;;;;9.29;97.05;96129.88;2010796;29;20187;-59
2023/06/07 02:15:58;;;;;;;10.15;9.02;;;;;;;9.27;97.49;96126.50;2018686;29;20064;-58
2023/06/07 02:16:59;;;;;;;12.60;9.48;;;;;;;9.27;97.56;96126.50;2010864;29;20041;-59
2023/06/07 02:18:04;;;;;;;11.55;9.65;;;;;;;9.24;96.92;96124.88;2002812;29;20432;-59
2023/06/07 02:19:09;;;;;;;11.95;9.55;;;;;;;9.26;97.35;96127.41;2018633;29;20057;-56
2023/06/07 02:20:25;;;;;;;10.77;9.25;;;;;;;9.23;97.14;96115.44;2026978;29;20056;-56
2023/06/07 02:21:31;;;;;;;11.60;10.07;;;;;;;9.34;97.63;96130.53;2018346;29;20053;-56
2023/06/07 02:22:32;;;;;;;11.10;8.77;;;;;;;9.36;97.34;96127.91;2017848;29;20521;-56
2023/06/07 02:23:33;;;;;;;11.90;9.43;;;;;;;9.27;97.52;96113.53;2026391;29;20056;-56
2023/06/07 02:24:38;;;;;;;12.13;9.35;;;;;;;9.38;97.41;96123.47;2026656;29;20366;-56
2023/06/07 02:25:39;;;;;;;11.52;10.13;;;;;;;9.39;98.03;96132.97;2017981;29;20057;-56
2023/06/07 02:26:42;;;;;;;13.32;9.77;;;;;;;9.41;97.66;96133.72;2010811;29;20053;-56
2023/06/07 02:27:43;;;;;;;13.15;9.52;;;;;;;9.41;97.76;96126.81;2018321;29;20060;-56
2023/06/07 02:28:44;;;;;;;11.40;9.32;;;;;;;9.41;98.35;96128.53;2010348;29;20057;-56
2023/06/07 02:29:45;;;;;;;11.95;9.65;;;;;;;9.39;97.50;96127.78;2017778;29;20139;-56
2023/06/07 02:30:46;;;;;;;12.40;9.73;;;;;;;9.28;97.51;96112.66;2026799;29;20087;-56
2023/06/07 02:31:50;;;;;;;9.63;8.63;;;;;;;9.32;97.73;96123.72;2018245;29;20060;-56
2023/06/07 02:32:54;;;;;;;10.82;9.68;;;;;;;9.27;98.09;96113.53;2018001;29;20105;-56
2023/06/07 02:33:55;;;;;;;10.70;9.50;;;;;;;9.33;97.90;96123.69;2018410;29;20366;-56
2023/06/07 02:34:56;;;;;;;10.85;9.52;;;;;;;9.33;97.68;96123.69;2018162;29;20044;-56
2023/06/07 02:35:58;;;;;;;11.18;9.48;;;;;;;9.18;97.59;96106.16;2026024;29;20052;-56
2023/06/07 02:37:00;;;;;;;13.55;9.45;;;;;;;9.29;97.32;96129.88;2017851;29;20060;-56
2023/06/07 02:38:01;;;;;;;13.75;9.38;;;;;;;9.26;97.70;96132.59;2018037;29;20088;-56
2023/06/07 02:39:04;;;;;;;11.10;9.32;;;;;;;9.21;97.87;96125.00;2026600;29;20532;-56
2023/06/07 02:40:05;;;;;;;10.15;9.07;;;;;;;9.18;97.53;96125.13;2025903;29;20059;-56
2023/06/07 02:41:06;;;;;;;10.63;9.45;;;;;;;9.19;97.58;96125.97;2026124;29;20059;-56
2023/06/07 02:42:08;;;;;;;10.40;9.20;;;;;;;9.14;98.02;96123.59;2026454;29;20511;-56
2023/06/07 02:43:09;;;;;;;12.38;10.35;;;;;;;9.16;97.67;96129.53;2017987;29;20059;-56
2023/06/07 02:44:10;;;;;;;10.60;9.38;;;;;;;9.15;97.92;96127.00;2016999;29;20052;-56
2023/06/07 02:45:12;;;;;;;11.68;9.50;;;;;;;9.13;98.05;96127.06;2016727;29;20136;-56
2023/06/07 02:46:13;;;;;;;11.15;9.40;;;;;;;9.10;97.78;96126.34;2018157;29;20067;-56
2023/06/07 02:47:15;;;;;;;14.30;10.27;;;;;;;9.08;97.86;96128.97;2026391;29;20356;-56
2023/06/07 02:48:16;;;;;;;13.45;9.82;;;;;;;9.07;98.05;96134.25;2026132;29;20092;-56
2023/06/07 02:49:17;;;;;;;10.57;9.15;;;;;;;9.08;97.81;96130.72;2017993;29;20053;-56
2023/06/07 02:50:18;;;;;;;11.27;9.63;;;;;;;9.07;97.57;96131.66;2018121;29;20060;-56
2023/06/07 02:51:19;;;;;;;10.30;8.65;;;;;;;9.05;97.64;96123.94;2017995;29;20183;-56
2023/06/07 02:52:21;;;;;;;11.00;9.00;;;;;;;9.04;97.55;96123.09;2010672;29;20069;-56
2023/06/07 02:53:22;;;;;;;10.82;9.05;;;;;;;9.04;97.90;96128.25;2010188;29;20061;-56
2023/06/07 02:54:23;;;;;;;11.15;8.95;;;;;;;9.03;98.11;96123.13;2010136;29;20116;-56
2023/06/07 02:55:25;;;;;;;11.30;9.57;;;;;;;9.02;98.11;96134.41;2010385;29;20068;-56
2023/06/07 02:56:29;;;;;;;10.15;8.77;;;;;;;9.00;97.90;96126.69;2010073;29;20065;-56
2023/06/07 02:57:30;;;;;;;9.95;8.27;;;;;;;9.04;98.22;96127.44;2010813;29;20101;-56
2023/06/07 02:58:31;;;;;;;11.23;8.88;;;;;;;8.95;97.59;96118.25;2009944;29;20053;-56
2023/06/07 02:59:33;;;;;;;11.70;9.35;;;;;;;9.01;97.87;96132.72;2010322;29;20053;-56
2023/06/07 03:00:34;;;;;;;11.80;9.63;;;;;;;8.97;97.95;96134.56;2017423;29;20068;-56
2023/06/07 03:01:41;;;;;;;11.90;10.32;;;;;;;8.95;98.01;96133.78;2017770;29;20064;-56
2023/06/07 03:02:43;;;;;;;12.63;9.18;;;;;;;8.93;98.05;96137.38;2010714;29;20053;-56
2023/06/07 03:03:44;;;;;;;12.05;9.63;;;;;;;8.91;98.11;96132.22;2010368;29;20540;-56
2023/06/07 03:04:48;;;;;;;11.02;9.35;;;;;;;8.87;98.28;96130.66;2009756;29;20069;-56
2023/06/07 03:05:49;;;;;;;11.48;9.35;;;;;;;8.88;97.89;96134.09;2010604;29;20060;-56
2023/06/07 03:06:53;;;;;;;13.63;9.35;;;;;;;8.87;98.23;96137.56;2010375;29;20053;-56
2023/06/07 03:08:16;;;;;;;10.40;9.30;;;;;;;8.87;98.03;96132.41;2011982;29;20056;-57
2023/06/07 03:09:18;;;;;;;10.30;9.15;;;;;;;8.84;98.09;96136.78;2010777;29;20072;-56
2023/06/07 03:10:20;;;;;;;10.50;9.40;;;;;;;8.87;98.25;96133.25;2009705;29;20529;-56
2023/06/07 03:11:22;;;;;;;12.20;9.68;;;;;;;8.80;98.42;96124.88;2010412;29;20485;-56
2023/06/07 03:12:25;;;;;;;10.80;9.43;;;;;;;8.87;98.13;96135.81;2010444;29;20080;-56
2023/06/07 03:13:30;;;;;;;11.60;10.40;;;;;;;8.88;98.12;96139.28;2003099;29;20062;-56
2023/06/07 03:14:31;;;;;;;11.07;9.60;;;;;;;8.85;98.38;96135.06;2003042;29;20062;-56
2023/06/07 03:15:33;;;;;;;14.15;10.13;;;;;;;8.85;98.25;96137.66;2010259;29;20192;-56
2023/06/07 03:16:34;;;;;;;11.45;9.25;;;;;;;8.84;98.63;96139.38;2017971;29;20060;-56
2023/06/07 03:17:40;;;;;;;11.15;9.55;;;;;;;8.77;98.19;96124.16;2010251;29;20068;-56
2023/06/07 03:18:41;;;;;;;11.25;9.23;;;;;;;8.83;98.33;96142.03;2010511;29;20068;-56
2023/06/07 03:19:43;;;;;;;12.98;10.48;;;;;;;8.82;98.62;96142.94;2010077;29;20068;-56
2023/06/07 03:20:44;;;;;;;12.32;9.68;;;;;;;8.83;98.42;96144.63;2017732;29;20064;-56
2023/06/07 03:21:53;;;;;;;11.27;10.07;;;;;;;8.74;98.76;96134.59;2026526;29;20060;-55
2023/06/07 03:22:55;;;;;;;11.15;9.70;;;;;;;8.74;98.46;96134.59;2017353;29;20056;-56
2023/06/07 03:23:56;;;;;;;12.98;10.05;;;;;;;8.75;98.25;96142.31;2017055;29;20052;-56
2023/06/07 03:24:58;;;;;;;11.45;9.93;;;;;;;8.80;98.58;96149.94;2017868;29;20060;-56
2023/06/07 03:26:01;;;;;;;11.07;9.45;;;;;;;8.80;98.95;96147.34;2010183;29;20049;-56
2023/06/07 03:27:06;;;;;;;11.00;9.27;;;;;;;8.81;98.50;96155.03;2010085;29;20547;-56
2023/06/07 03:28:07;;;;;;;10.30;8.85;;;;;;;8.80;98.29;96153.34;2009821;29;20056;-56
2023/06/07 03:29:14;;;;;;;11.88;9.25;;;;;;;8.80;98.70;96152.53;2010920;29;20128;-59
2023/06/07 03:30:16;;;;;;;10.60;8.45;;;;;;;8.79;98.56;96150.81;2010080;29;20072;-59
2023/06/07 03:31:19;;;;;;;11.05;9.90;;;;;;;8.80;98.40;96152.53;2010074;29;20061;-59
2023/06/07 03:32:32;;;;;;;13.05;10.10;;;;;;;8.78;98.71;96155.16;2011721;29;20064;-59
2023/06/07 03:33:33;;;;;;;10.80;9.15;;;;;;;8.78;98.47;96159.50;2010184;29;20049;-58
2023/06/07 03:34:34;;;;;;;11.23;9.15;;;;;;;8.76;98.50;96156.13;2017219;29;20101;-58
2023/06/07 03:35:39;;;;;;;11.70;8.50;;;;;;;8.74;98.63;96163.09;2017281;29;20067;-58
2023/06/07 03:36:40;;;;;;;11.85;9.30;;;;;;;8.81;98.44;96160.22;2002193;29;20064;-59
2023/06/07 03:37:42;;;;;;;11.13;9.77;;;;;;;8.83;98.73;96155.84;2009569;29;20456;-59
2023/06/07 03:38:43;;;;;;;11.77;10.45;;;;;;;8.82;98.76;96151.56;2009937;29;20053;-59
2023/06/07 03:39:45;;;;;;;11.32;9.85;;;;;;;8.84;98.81;96160.09;2017231;29;20065;-59
2023/06/07 03:40:46;;;;;;;10.82;9.70;;;;;;;8.86;98.60;96165.22;2017686;29;20079;-58
2023/06/07 03:41:47;;;;;;;11.48;9.32;;;;;;;8.89;99.12;96165.09;2009745;29;20061;-59
2023/06/07 03:42:53;;;;;;;12.35;10.50;;;;;;;8.90;98.89;96172.00;2002866;29;20065;-59
2023/06/07 03:43:56;;;;;;;12.70;9.70;;;;;;;8.93;99.08;96168.44;2002928;29;20543;-59
2023/06/07 03:44:58;;;;;;;12.32;9.45;;;;;;;8.94;98.74;96165.78;2009915;29;20056;-58
2023/06/07 03:45:59;;;;;;;10.60;9.32;;;;;;;8.95;99.28;96170.03;2009289;29;20056;-59
2023/06/07 03:47:00;;;;;;;12.27;9.50;;;;;;;8.95;99.22;96167.47;2002060;29;20053;-59
2023/06/07 03:48:03;;;;;;;10.10;9.07;;;;;;;8.97;99.10;96167.41;1995014;29;20050;-59
2023/06/07 03:49:06;;;;;;;11.55;9.70;;;;;;;8.89;99.40;96146.97;2002606;29;20105;-59
2023/06/07 03:50:07;;;;;;;9.90;8.77;;;;;;;9.00;99.46;96170.72;2010180;29;20065;-59
2023/06/07 03:51:11;;;;;;;12.25;9.80;;;;;;;9.00;99.22;96170.72;2010607;29;20053;-59
2023/06/07 03:52:13;;;;;;;12.85;9.95;;;;;;;9.01;99.30;96172.44;2009363;29;20520;-59
2023/06/07 03:53:15;;;;;;;10.43;9.32;;;;;;;9.02;99.14;96171.50;2009661;29;20378;-59
2023/06/07 03:54:18;;;;;;;14.18;10.00;;;;;;;9.02;99.39;96168.09;2017342;29;20053;-59
2023/06/07 03:55:19;;;;;;;12.85;9.30;;;;;;;9.02;99.08;96171.50;2009729;29;20180;-59
2023/06/07 03:56:21;;;;;;;12.95;9.60;;;;;;;9.02;98.91;96168.91;2025020;29;20052;-59
2023/06/07 03:57:23;;;;;;;11.45;9.10;;;;;;;9.04;99.54;96171.47;2017274;29;20075;-59
2023/06/07 03:58:26;;;;;;;9.43;8.32;;;;;;;9.03;98.84;96164.56;2009638;29;20057;-59
2023/06/07 03:59:27;;;;;;;10.25;9.07;;;;;;;9.06;98.91;96177.41;2009252;29;20410;-59
2023/06/07 04:00:29;;;;;;;10.40;8.95;;;;;;;9.09;99.42;96168.69;2002317;29;20065;-59
2023/06/07 04:01:31;;;;;;;11.63;9.13;;;;;;;9.12;99.08;96173.78;2002028;29;20054;-58
2023/06/07 04:02:33;;;;;;;13.45;9.80;;;;;;;9.15;99.72;96165.88;2009676;29;20081;-57
2023/06/07 04:03:34;;;;;;;11.10;9.10;;;;;;;9.17;99.13;96172.69;2017963;29;20079;-59
2023/06/07 04:04:38;;;;;;;10.45;8.73;;;;;;;9.18;99.39;96165.75;2010235;29;20057;-58
2023/06/07 04:05:40;;;;;;;11.10;9.23;;;;;;;9.25;98.99;96164.63;2009466;29;20053;-59
2023/06/07 04:06:43;;;;;;;11.85;9.20;;;;;;;9.25;99.25;96169.78;2009729;29;20053;-59
2023/06/07 04:07:46;;;;;;;10.30;8.65;;;;;;;9.22;99.34;96159.53;2009982;29;20053;-58
2023/06/07 04:08:48;;;;;;;11.15;8.57;;;;;;;9.30;98.98;96169.59;2009905;29;20434;-59
2023/06/07 04:09:49;;;;;;;11.15;8.73;;;;;;;9.33;99.21;96172.94;2017738;29;20061;-59
2023/06/07 04:10:50;;;;;;;10.38;9.15;;;;;;;9.36;99.02;96166.78;2017372;29;20049;-59
2023/06/07 04:11:51;;;;;;;9.75;8.30;;;;;;;9.39;99.71;96177.03;2017187;29;20049;-59
2023/06/07 04:12:53;;;;;;;12.73;9.35;;;;;;;9.42;99.27;96171.72;2017617;29;20510;-59
2023/06/07 04:13:54;;;;;;;9.88;8.68;;;;;;;9.47;99.28;96174.97;2009121;29;20052;-59
2023/06/07 04:14:59;;;;;;;9.70;8.70;;;;;;;9.51;98.86;96173.94;2010122;29;20056;-59
2023/06/07 04:16:02;;;;;;;11.77;8.85;;;;;;;9.44;99.15;96160.38;2009362;29;20049;-59
2023/06/07 04:17:04;;;;;;;9.68;8.25;;;;;;;9.58;99.37;96179.72;2009197;29;20052;-58
2023/06/07 04:18:06;;;;;;;10.82;7.90;;;;;;;9.52;98.72;96154.88;2009580;29;20057;-59
2023/06/07 04:19:09;;;;;;;11.98;7.95;;;;;;;9.64;98.73;96179.47;2009892;29;20041;-58
2023/06/07 04:20:11;;;;;;;10.32;8.07;;;;;;;9.68;98.95;96175.84;2009406;29;20058;-58
2023/06/07 04:21:12;;;;;;;10.23;8.63;;;;;;;9.73;98.83;96173.91;2017061;29;20049;-59
2023/06/07 04:22:16;;;;;;;11.57;8.90;;;;;;;9.75;99.20;96173.84;2017385;29;20049;-59
2023/06/07 04:23:17;;;;;;;11.35;8.98;;;;;;;9.77;98.94;96175.47;2009811;29;20136;-59
2023/06/07 04:24:19;;;;;;;9.98;8.60;;;;;;;9.82;98.55;96177.88;2009626;29;20049;-59
2023/06/07 04:25:24;;;;;;;11.88;9.55;;;;;;;9.84;98.98;96182.09;2010008;29;20049;-59
2023/06/07 04:26:25;;;;;;;11.63;9.98;;;;;;;9.90;97.77;96175.81;2010150;29;20053;-59
2023/06/07 04:27:29;;;;;;;10.77;9.43;;;;;;;9.95;97.36;96179.06;2009712;29;20065;-59
2023/06/07 04:28:30;;;;;;;11.10;9.90;;;;;;;10.00;97.30;96177.13;2017642;29;20057;-59
2023/06/07 04:29:40;;;;;;;11.57;9.18;;;;;;;10.04;96.98;96176.06;2016870;29;20053;-59
2023/06/07 04:30:42;;;;;;;11.13;9.38;;;;;;;10.09;96.98;96175.88;2002406;29;20046;-59
2023/06/07 04:31:44;;;;;;;11.35;9.68;;;;;;;10.15;97.10;96186.00;1994251;29;20062;-59
2023/06/07 04:32:47;;;;;;;10.32;9.25;;;;;;;10.18;96.87;96178.06;1987703;29;20058;-59
2023/06/07 04:33:49;;;;;;;13.27;9.52;;;;;;;10.24;97.38;96177.00;2001785;29;20058;-59
2023/06/07 04:34:51;;;;;;;10.73;9.20;;;;;;;10.27;97.41;96180.31;2009692;29;20053;-59
2023/06/07 04:35:52;;;;;;;10.90;9.75;;;;;;;10.31;96.90;96181.84;2009265;29;20049;-59
2023/06/07 04:36:56;;;;;;;10.05;9.02;;;;;;;10.36;97.14;96179.06;2010054;29;20056;-59
2023/06/07 04:38:01;;;;;;;11.55;9.13;;;;;;;10.31;97.08;96166.28;2009390;29;20061;-58
2023/06/07 04:39:05;;;;;;;11.02;9.18;;;;;;;10.38;96.65;96178.09;2009805;29;20061;-59
2023/06/07 04:40:09;;;;;;;10.68;9.00;;;;;;;10.45;96.39;96183.88;2009634;29;20609;-59
2023/06/07 04:41:13;;;;;;;10.82;9.73;;;;;;;10.48;96.02;96188.09;2016937;29;20060;-59
2023/06/07 04:42:25;;;;;;;9.80;8.80;;;;;;;10.52;95.81;96179.25;2017162;29;20430;-58
2023/06/07 04:43:26;;;;;;;10.38;9.15;;;;;;;10.54;95.69;96183.47;2017163;29;20060;-59
2023/06/07 04:44:28;;;;;;;11.65;9.27;;;;;;;10.57;95.15;96183.31;2009424;29;20088;-59
2023/06/07 04:45:33;;;;;;;11.52;8.88;;;;;;;10.64;95.66;96188.25;2009768;29;20061;-59
2023/06/07 04:46:39;;;;;;;12.48;9.68;;;;;;;10.63;94.62;96177.00;2009974;29;20414;-59
2023/06/07 04:47:45;;;;;;;15.57;9.48;;;;;;;10.74;95.53;96190.34;2010270;29;20077;-59
2023/06/07 04:48:48;;;;;;;16.45;8.45;;;;;;;10.76;94.66;96178.16;2010212;29;20626;-60
2023/06/07 04:49:51;;;;;;;20.73;9.57;;;;;;;10.81;94.96;96180.56;2017104;29;20061;-60
2023/06/07 04:50:56;;;;;;;19.13;8.77;;;;;;;10.85;95.01;96176.03;2016542;29;20068;-60
2023/06/07 04:51:58;;;;;;;20.17;9.57;;;;;;;10.90;95.33;96181.88;2009739;29;20135;-60
2023/06/07 04:53:03;;;;;;;19.77;8.90;;;;;;;10.93;94.97;96182.59;2009884;29;20045;-61
2023/06/07 04:54:05;;;;;;;18.50;9.40;;;;;;;10.96;93.88;96177.25;2009782;29;20425;-60
2023/06/07 04:55:14;;;;;;;10.70;9.25;;;;;;;10.98;93.19;96179.78;2010218;29;20129;-60
2023/06/07 04:56:15;;;;;;;16.52;9.90;;;;;;;11.06;93.24;96179.44;2017521;29;20049;-60
2023/06/07 04:57:18;;;;;;;12.35;9.85;;;;;;;11.07;92.38;96183.72;2016626;29;20060;-60
2023/06/07 04:58:20;;;;;;;11.20;9.63;;;;;;;11.15;92.21;96179.84;2009351;29;20065;-60
2023/06/07 04:59:22;;;;;;;12.35;10.30;;;;;;;11.21;93.49;96179.56;2017534;29;20052;-60
2023/06/07 05:00:27;;;;;;;10.32;9.23;;;;;;;11.18;92.29;96171.06;2017767;29;20061;-60